Terminal Aerodrome Forecast
Issued by NWS

Home | Current Version | Previous Version | Graphics & Text | Print | Product List | Glossary On
Versions: 1 2 3 4 5 6 7 8 9 10 11 12
000
FTUS43 KICT 221732
TAFCNU
TAF
KCNU 221732Z 2218/2318 18018G25KT P6SM SCT040
      TEMPO 2220/2223 BKN050
     FM230100 15010KT P6SM FEW050
     FM231100 16007KT P6SM SCT070
     FM231600 18012G18KT P6SM SCT070=

USA.gov is the U.S. government's official web portal to all federal, state and local government web resources and services.